sensor_id;sensor_type;location;lat;lon;timestamp;pressure;altitude;pressure_sealevel;temperature;humidity
33845;BME280;20145;43.118;25.694;2023-02-21T00:02:17;99639.78;;;10.30;48.57
33845;BME280;20145;43.118;25.694;2023-02-21T00:05:01;99637.22;;;10.32;48.40
33845;BME280;20145;43.118;25.694;2023-02-21T00:07:45;99618.31;;;10.26;49.09
33845;BME280;20145;43.118;25.694;2023-02-21T00:10:29;99614.91;;;10.17;49.37
33845;BME280;20145;43.118;25.694;2023-02-21T00:13:13;99632.94;;;10.21;49.66
33845;BME280;20145;43.118;25.694;2023-02-21T00:15:57;99631.25;;;10.19;49.32
33845;BME280;20145;43.118;25.694;2023-02-21T00:18:41;99637.22;;;10.24;48.63
33845;BME280;20145;43.118;25.694;2023-02-21T00:21:29;99627.81;;;10.18;49.61
33845;BME280;20145;43.118;25.694;2023-02-21T00:24:17;99626.03;;;10.25;49.19
33845;BME280;20145;43.118;25.694;2023-02-21T00:27:02;99624.34;;;10.22;48.58
33845;BME280;20145;43.118;25.694;2023-02-21T00:29:47;99621.78;;;10.21;49.22
33845;BME280;20145;43.118;25.694;2023-02-21T00:32:31;99620.00;;;10.31;48.83
33845;BME280;20145;43.118;25.694;2023-02-21T00:35:17;99613.13;;;10.33;48.30
33845;BME280;20145;43.118;25.694;2023-02-21T00:38:01;99619.19;;;10.29;48.89
33845;BME280;20145;43.118;25.694;2023-02-21T00:40:45;99617.41;;;10.35;48.35
33845;BME280;20145;43.118;25.694;2023-02-21T00:43:30;99615.72;;;10.31;48.72
33845;BME280;20145;43.118;25.694;2023-02-21T00:46:15;99602.78;;;10.36;47.99
33845;BME280;20145;43.118;25.694;2023-02-21T00:48:59;99589.00;;;10.38;47.61
33845;BME280;20145;43.118;25.694;2023-02-21T00:51:43;99591.66;;;10.31;48.62
33845;BME280;20145;43.118;25.694;2023-02-21T00:54:28;99593.34;;;10.33;48.21
33845;BME280;20145;43.118;25.694;2023-02-21T00:57:13;99588.13;;;10.42;47.61
33845;BME280;20145;43.118;25.694;2023-02-21T00:59:57;99585.56;;;10.42;47.49
33845;BME280;20145;43.118;25.694;2023-02-21T01:02:41;99587.25;;;10.42;48.17
33845;BME280;20145;43.118;25.694;2023-02-21T01:05:25;99581.25;;;10.41;46.92
33845;BME280;20145;43.118;25.694;2023-02-21T01:08:09;99574.34;;;10.43;47.36
33845;BME280;20145;43.118;25.694;2023-02-21T01:10:53;99574.38;;;10.39;47.83
33845;BME280;20145;43.118;25.694;2023-02-21T01:13:37;99566.69;;;10.37;48.34
33845;BME280;20145;43.118;25.694;2023-02-21T01:16:21;99556.41;;;10.34;48.48
33845;BME280;20145;43.118;25.694;2023-02-21T01:19:06;99557.22;;;10.36;47.55
33845;BME280;20145;43.118;25.694;2023-02-21T01:21:50;99558.91;;;10.40;47.47
33845;BME280;20145;43.118;25.694;2023-02-21T01:24:34;99559.75;;;10.42;47.83
33845;BME280;20145;43.118;25.694;2023-02-21T01:27:18;99542.59;;;10.40;48.10
33845;BME280;20145;43.118;25.694;2023-02-21T01:30:02;99546.84;;;10.44;48.18
33845;BME280;20145;43.118;25.694;2023-02-21T01:32:47;99537.41;;;10.43;48.49
33845;BME280;20145;43.118;25.694;2023-02-21T01:35:30;99533.03;;;10.49;48.31
33845;BME280;20145;43.118;25.694;2023-02-21T01:38:15;99533.75;;;10.61;47.37
33845;BME280;20145;43.118;25.694;2023-02-21T01:40:59;99530.38;;;10.56;47.79
33845;BME280;20145;43.118;25.694;2023-02-21T01:44:04;99534.66;;;10.58;47.23
33845;BME280;20145;43.118;25.694;2023-02-21T01:46:49;99536.44;;;10.52;47.66
33845;BME280;20145;43.118;25.694;2023-02-21T01:49:35;99535.53;;;10.57;48.23
33845;BME280;20145;43.118;25.694;2023-02-21T01:52:21;99534.69;;;10.55;48.38
33845;BME280;20145;43.118;25.694;2023-02-21T01:55:06;99532.13;;;10.54;48.49
33845;BME280;20145;43.118;25.694;2023-02-21T01:57:51;99520.09;;;10.53;47.55
33845;BME280;20145;43.118;25.694;2023-02-21T02:00:37;99523.56;;;10.50;48.19
33845;BME280;20145;43.118;25.694;2023-02-21T02:03:21;99515.78;;;10.55;47.94
33845;BME280;20145;43.118;25.694;2023-02-21T02:06:09;99520.09;;;10.54;47.29
33845;BME280;20145;43.118;25.694;2023-02-21T02:08:55;99510.53;;;10.61;47.98
33845;BME280;20145;43.118;25.694;2023-02-21T02:23:14;99499.16;;;10.80;46.88
33845;BME280;20145;43.118;25.694;2023-02-21T02:26:45;99479.38;;;10.78;47.37
33845;BME280;20145;43.118;25.694;2023-02-21T02:29:14;99469.91;;;10.80;46.99
33845;BME280;20145;43.118;25.694;2023-02-21T02:40:26;99458.56;;;10.91;47.56
33845;BME280;20145;43.118;25.694;2023-02-21T02:43:19;99460.34;;;10.89;46.80
33845;BME280;20145;43.118;25.694;2023-02-21T02:45:59;99451.66;;;10.95;46.48
33845;BME280;20145;43.118;25.694;2023-02-21T02:48:38;99461.91;;;11.00;47.37
33845;BME280;20145;43.118;25.694;2023-02-21T02:51:10;99459.38;;;10.98;46.33
33845;BME280;20145;43.118;25.694;2023-02-21T02:53:36;99455.84;;;11.02;46.99
33845;BME280;20145;43.118;25.694;2023-02-21T02:56:05;99465.06;;;11.23;46.57
33845;BME280;20145;43.118;25.694;2023-02-21T03:12:09;99465.84;;;11.28;46.46
33845;BME280;20145;43.118;25.694;2023-02-21T03:14:54;99465.88;;;11.27;46.69
33845;BME280;20145;43.118;25.694;2023-02-21T03:17:25;99473.56;;;11.31;45.72
33845;BME280;20145;43.118;25.694;2023-02-21T03:19:53;99470.94;;;11.33;46.65
33845;BME280;20145;43.118;25.694;2023-02-21T03:22:23;99461.63;;;11.23;45.91
33845;BME280;20145;43.118;25.694;2023-02-21T03:24:51;99477.03;;;11.27;46.69
33845;BME280;20145;43.118;25.694;2023-02-21T03:27:20;99453.84;;;11.24;45.96
33845;BME280;20145;43.118;25.694;2023-02-21T03:29:46;99464.91;;;11.32;45.79
33845;BME280;20145;43.118;25.694;2023-02-21T03:34:59;99474.53;;;11.23;46.04
33845;BME280;20145;43.118;25.694;2023-02-21T03:40:01;99477.03;;;11.29;45.68
33845;BME280;20145;43.118;25.694;2023-02-21T03:42:26;99484.81;;;11.26;45.89
33845;BME280;20145;43.118;25.694;2023-02-21T03:44:52;99478.06;;;11.15;46.47
33845;BME280;20145;43.118;25.694;2023-02-21T03:47:17;99480.66;;;11.14;46.63
33845;BME280;20145;43.118;25.694;2023-02-21T03:49:43;99481.53;;;11.13;47.47
33845;BME280;20145;43.118;25.694;2023-02-21T03:52:10;99474.72;;;11.09;46.82
33845;BME280;20145;43.118;25.694;2023-02-21T03:54:38;99477.16;;;11.20;46.79
33845;BME280;20145;43.118;25.694;2023-02-21T03:57:03;99472.00;;;11.20;46.56
33845;BME280;20145;43.118;25.694;2023-02-21T03:59:29;99469.38;;;11.21;46.47
33845;BME280;20145;43.118;25.694;2023-02-21T04:01:54;99460.69;;;11.27;46.68
33845;BME280;20145;43.118;25.694;2023-02-21T04:04:20;99464.97;;;11.28;47.43
33845;BME280;20145;43.118;25.694;2023-02-21T04:06:46;99466.78;;;11.23;46.74
33845;BME280;20145;43.118;25.694;2023-02-21T04:09:11;99460.69;;;11.28;46.29
33845;BME280;20145;43.118;25.694;2023-02-21T04:11:37;99463.06;;;11.42;46.84
33845;BME280;20145;43.118;25.694;2023-02-21T04:14:02;99465.66;;;11.42;46.51
33845;BME280;20145;43.118;25.694;2023-02-21T04:16:29;99454.44;;;11.42;46.78
33845;BME280;20145;43.118;25.694;2023-02-21T04:18:54;99463.91;;;11.43;45.82
33845;BME280;20145;43.118;25.694;2023-02-21T04:21:21;99457.91;;;11.42;45.62
33845;BME280;20145;43.118;25.694;2023-02-21T04:23:47;99462.25;;;11.38;46.40
33845;BME280;20145;43.118;25.694;2023-02-21T04:26:13;99453.75;;;11.30;46.25
33845;BME280;20145;43.118;25.694;2023-02-21T04:28:38;99454.50;;;11.38;46.03
33845;BME280;20145;43.118;25.694;2023-02-21T04:31:04;99451.00;;;11.43;46.76
33845;BME280;20145;43.118;25.694;2023-02-21T04:33:29;99456.91;;;11.51;46.40
33845;BME280;20145;43.118;25.694;2023-02-21T04:35:55;99450.22;;;11.39;46.46
33845;BME280;20145;43.118;25.694;2023-02-21T04:38:20;99435.56;;;11.38;46.58
33845;BME280;20145;43.118;25.694;2023-02-21T04:40:46;99447.47;;;11.48;46.47
33845;BME280;20145;43.118;25.694;2023-02-21T04:43:11;99439.78;;;11.44;45.99
33845;BME280;20145;43.118;25.694;2023-02-21T04:45:37;99426.88;;;11.44;45.46
33845;BME280;20145;43.118;25.694;2023-02-21T04:48:03;99438.03;;;11.46;46.00
33845;BME280;20145;43.118;25.694;2023-02-21T04:50:28;99439.78;;;11.45;46.89
33845;BME280;20145;43.118;25.694;2023-02-21T04:52:54;99433.72;;;11.48;46.39
33845;BME280;20145;43.118;25.694;2023-02-21T04:55:19;99427.69;;;11.46;46.34
33845;BME280;20145;43.118;25.694;2023-02-21T04:57:45;99434.66;;;11.42;45.68
33845;BME280;20145;43.118;25.694;2023-02-21T05:00:11;99432.84;;;11.47;46.04
33845;BME280;20145;43.118;25.694;2023-02-21T05:02:37;99417.25;;;11.53;45.60
33845;BME280;20145;43.118;25.694;2023-02-21T05:05:06;99413.94;;;11.44;45.88
33845;BME280;20145;43.118;25.694;2023-02-21T05:07:32;99421.53;;;11.54;45.76
33845;BME280;20145;43.118;25.694;2023-02-21T05:09:57;99422.38;;;11.56;46.39
33845;BME280;20145;43.118;25.694;2023-02-21T05:12:23;99415.38;;;11.63;45.79
33845;BME280;20145;43.118;25.694;2023-02-21T05:14:48;99417.09;;;11.63;45.73
33845;BME280;20145;43.118;25.694;2023-02-21T05:17:14;99418.72;;;11.70;46.03
33845;BME280;20145;43.118;25.694;2023-02-21T05:19:39;99422.09;;;11.73;45.15
33845;BME280;20145;43.118;25.694;2023-02-21T05:22:05;99418.50;;;11.83;44.67
33845;BME280;20145;43.118;25.694;2023-02-21T05:24:32;99413.38;;;11.79;45.39
33845;BME280;20145;43.118;25.694;2023-02-21T05:26:58;99416.72;;;11.87;45.40
33845;BME280;20145;43.118;25.694;2023-02-21T05:29:24;99418.41;;;11.88;45.80
33845;BME280;20145;43.118;25.694;2023-02-21T05:31:50;99423.53;;;11.91;44.63
33845;BME280;20145;43.118;25.694;2023-02-21T05:34:15;99419.34;;;11.82;45.47
33845;BME280;20145;43.118;25.694;2023-02-21T05:36:44;99414.16;;;11.86;45.26
33845;BME280;20145;43.118;25.694;2023-02-21T05:39:10;99418.28;;;11.97;44.68
33845;BME280;20145;43.118;25.694;2023-02-21T05:41:35;99425.22;;;11.95;44.74
33845;BME280;20145;43.118;25.694;2023-02-21T05:44:02;99426.13;;;11.91;45.76
33845;BME280;20145;43.118;25.694;2023-02-21T05:46:30;99430.38;;;11.94;44.97
33845;BME280;20145;43.118;25.694;2023-02-21T05:48:57;99426.97;;;11.93;46.08
33845;BME280;20145;43.118;25.694;2023-02-21T05:51:23;99429.38;;;12.02;45.43
33845;BME280;20145;43.118;25.694;2023-02-21T05:53:50;99433.69;;;12.03;44.41
33845;BME280;20145;43.118;25.694;2023-02-21T05:56:16;99421.63;;;12.02;45.30
33845;BME280;20145;43.118;25.694;2023-02-21T05:58:43;99435.19;;;12.17;44.86
33845;BME280;20145;43.118;25.694;2023-02-21T06:01:08;99436.69;;;12.28;44.15
33845;BME280;20145;43.118;25.694;2023-02-21T06:03:34;99430.47;;;12.39;44.68
33845;BME280;20145;43.118;25.694;2023-02-21T06:05:59;99424.31;;;12.43;43.87
33845;BME280;20145;43.118;25.694;2023-02-21T06:08:25;99419.94;;;12.46;44.27
33845;BME280;20145;43.118;25.694;2023-02-21T06:10:51;99417.97;;;12.59;44.36
33845;BME280;20145;43.118;25.694;2023-02-21T06:13:16;99423.66;;;12.77;43.35
33845;BME280;20145;43.118;25.694;2023-02-21T06:15:42;99408.03;;;12.80;42.66
33845;BME280;20145;43.118;25.694;2023-02-21T06:18:08;99418.09;;;12.93;42.56
33845;BME280;20145;43.118;25.694;2023-02-21T06:20:33;99416.88;;;13.10;41.68
33845;BME280;20145;43.118;25.694;2023-02-21T06:22:59;99415.06;;;13.13;41.72
33845;BME280;20145;43.118;25.694;2023-02-21T06:25:24;99416.56;;;13.24;41.56
33845;BME280;20145;43.118;25.694;2023-02-21T06:27:50;99427.50;;;13.38;42.66
33845;BME280;20145;43.118;25.694;2023-02-21T06:30:15;99431.69;;;13.44;41.48
33845;BME280;20145;43.118;25.694;2023-02-21T06:32:42;99429.69;;;13.56;41.25
33845;BME280;20145;43.118;25.694;2023-02-21T06:35:08;99427.75;;;13.65;40.95
33845;BME280;20145;43.118;25.694;2023-02-21T06:37:33;99421.72;;;13.64;41.91
33845;BME280;20145;43.118;25.694;2023-02-21T06:39:59;99418.31;;;13.62;40.37
33845;BME280;20145;43.118;25.694;2023-02-21T06:42:25;99428.78;;;13.57;42.55
33845;BME280;20145;43.118;25.694;2023-02-21T06:44:50;99431.63;;;13.47;42.47
33845;BME280;20145;43.118;25.694;2023-02-21T06:47:16;99421.31;;;13.45;41.95
33845;BME280;20145;43.118;25.694;2023-02-21T06:49:42;99427.06;;;13.58;42.12
33845;BME280;20145;43.118;25.694;2023-02-21T06:52:09;99391.31;;;13.35;40.82
33845;BME280;20145;43.118;25.694;2023-02-21T06:54:35;99429.38;;;13.69;40.42
33845;BME280;20145;43.118;25.694;2023-02-21T06:57:00;99424.66;;;13.84;41.87
33845;BME280;20145;43.118;25.694;2023-02-21T06:59:27;99426.91;;;13.98;40.39
33845;BME280;20145;43.118;25.694;2023-02-21T07:01:53;99424.97;;;14.06;41.18
33845;BME280;20145;43.118;25.694;2023-02-21T07:04:19;99428.09;;;14.19;39.84
33845;BME280;20145;43.118;25.694;2023-02-21T07:06:44;99418.38;;;14.27;39.78
33845;BME280;20145;43.118;25.694;2023-02-21T07:09:10;99419.78;;;14.39;38.83
33845;BME280;20145;43.118;25.694;2023-02-21T07:11:36;99422.03;;;14.53;39.97
33845;BME280;20145;43.118;25.694;2023-02-21T07:14:02;99422.34;;;14.72;39.21
33845;BME280;20145;43.118;25.694;2023-02-21T07:16:27;99409.91;;;14.83;38.32
33845;BME280;20145;43.118;25.694;2023-02-21T07:18:53;99408.72;;;14.93;38.64
33845;BME280;20145;43.118;25.694;2023-02-21T07:21:20;99413.16;;;15.18;38.05
33845;BME280;20145;43.118;25.694;2023-02-21T07:23:46;99415.44;;;15.29;37.85
33845;BME280;20145;43.118;25.694;2023-02-21T07:26:13;99411.75;;;15.36;36.68
33845;BME280;20145;43.118;25.694;2023-02-21T07:28:39;99418.97;;;15.54;36.40
33845;BME280;20145;43.118;25.694;2023-02-21T07:31:04;99417.50;;;15.74;35.45
33845;BME280;20145;43.118;25.694;2023-02-21T07:33:30;99413.19;;;15.99;36.95
33845;BME280;20145;43.118;25.694;2023-02-21T07:35:56;99414.88;;;16.00;36.77
33845;BME280;20145;43.118;25.694;2023-02-21T07:38:23;99396.22;;;16.13;35.11
33845;BME280;20145;43.118;25.694;2023-02-21T07:40:50;99403.72;;;16.22;33.91
33845;BME280;20145;43.118;25.694;2023-02-21T07:43:16;99391.66;;;16.19;34.16
33845;BME280;20145;43.118;25.694;2023-02-21T07:45:41;99395.06;;;16.21;34.34
33845;BME280;20145;43.118;25.694;2023-02-21T07:48:07;99398.25;;;16.30;33.55
33845;BME280;20145;43.118;25.694;2023-02-21T07:50:32;99404.31;;;16.30;33.10
33845;BME280;20145;43.118;25.694;2023-02-21T07:52:59;99401.28;;;16.17;33.00
33845;BME280;20145;43.118;25.694;2023-02-21T07:55:25;99391.97;;;16.35;33.18
33845;BME280;20145;43.118;25.694;2023-02-21T07:57:50;99397.91;;;16.39;34.18
33845;BME280;20145;43.118;25.694;2023-02-21T08:00:16;99395.03;;;16.46;32.80
33845;BME280;20145;43.118;25.694;2023-02-21T08:02:46;99385.28;;;16.51;32.54
33845;BME280;20145;43.118;25.694;2023-02-21T08:05:16;99388.38;;;16.63;31.36
33845;BME280;20145;43.118;25.694;2023-02-21T08:07:42;99397.47;;;16.75;31.20
33845;BME280;20145;43.118;25.694;2023-02-21T08:10:08;99397.03;;;16.87;31.64
33845;BME280;20145;43.118;25.694;2023-02-21T08:12:33;99391.38;;;16.99;30.89
33845;BME280;20145;43.118;25.694;2023-02-21T08:14:59;99389.06;;;17.13;31.91
33845;BME280;20145;43.118;25.694;2023-02-21T08:17:25;99393.66;;;17.29;31.63
33845;BME280;20145;43.118;25.694;2023-02-21T08:19:50;99390.50;;;17.43;30.39
33845;BME280;20145;43.118;25.694;2023-02-21T08:22:16;99372.72;;;17.52;29.94
33845;BME280;20145;43.118;25.694;2023-02-21T08:24:42;99374.06;;;17.63;29.21
33845;BME280;20145;43.118;25.694;2023-02-21T08:27:07;99377.63;;;17.82;28.49
33845;BME280;20145;43.118;25.694;2023-02-21T08:29:33;99374.63;;;17.91;28.47
33845;BME280;20145;43.118;25.694;2023-02-21T08:31:59;99375.50;;;17.90;28.11
33845;BME280;20145;43.118;25.694;2023-02-21T08:34:24;99381.06;;;18.03;27.71
33845;BME280;20145;43.118;25.694;2023-02-21T08:36:50;99382.50;;;18.10;28.24
33845;BME280;20145;43.118;25.694;2023-02-21T08:39:15;99370.66;;;18.22;27.80
33845;BME280;20145;43.118;25.694;2023-02-21T08:41:44;99379.44;;;18.40;28.06
33845;BME280;20145;43.118;25.694;2023-02-21T08:44:13;99364.88;;;18.34;27.89
33845;BME280;20145;43.118;25.694;2023-02-21T08:46:40;99375.09;;;18.40;27.60
33845;BME280;20145;43.118;25.694;2023-02-21T08:49:06;99375.84;;;18.42;27.33
33845;BME280;20145;43.118;25.694;2023-02-21T08:51:32;99358.03;;;18.32;27.40
33845;BME280;20145;43.118;25.694;2023-02-21T08:53:59;99363.78;;;18.40;26.97
33845;BME280;20145;43.118;25.694;2023-02-21T08:56:26;99366.31;;;18.41;26.77
33845;BME280;20145;43.118;25.694;2023-02-21T08:58:52;99352.09;;;18.48;26.76
33845;BME280;20145;43.118;25.694;2023-02-21T09:01:20;99355.25;;;18.55;27.27
33845;BME280;20145;43.118;25.694;2023-02-21T09:03:45;99349.31;;;18.70;27.39
33845;BME280;20145;43.118;25.694;2023-02-21T09:06:12;99354.16;;;18.80;26.73
33845;BME280;20145;43.118;25.694;2023-02-21T09:08:37;99352.31;;;18.82;26.70
33845;BME280;20145;43.118;25.694;2023-02-21T09:11:05;99343.75;;;18.78;26.09
33845;BME280;20145;43.118;25.694;2023-02-21T09:13:31;99336.25;;;18.89;26.59
33845;BME280;20145;43.118;25.694;2023-02-21T09:15:59;99321.84;;;18.81;26.48
33845;BME280;20145;43.118;25.694;2023-02-21T09:18:25;99338.88;;;18.89;26.87
33845;BME280;20145;43.118;25.694;2023-02-21T09:20:51;99321.13;;;18.96;26.48
33845;BME280;20145;43.118;25.694;2023-02-21T09:23:19;99331.44;;;18.99;26.35
33845;BME280;20145;43.118;25.694;2023-02-21T09:25:45;99336.06;;;19.11;25.91
33845;BME280;20145;43.118;25.694;2023-02-21T09:28:11;99333.81;;;19.04;25.93
33845;BME280;20145;43.118;25.694;2023-02-21T09:30:37;99341.41;;;19.10;26.63
33845;BME280;20145;43.118;25.694;2023-02-21T09:33:03;99345.09;;;19.23;25.82
33845;BME280;20145;43.118;25.694;2023-02-21T09:35:28;99329.78;;;19.15;26.22
33845;BME280;20145;43.118;25.694;2023-02-21T09:37:56;99330.19;;;19.43;26.99
33845;BME280;20145;43.118;25.694;2023-02-21T09:40:49;99323.94;;;19.45;25.95
33845;BME280;20145;43.118;25.694;2023-02-21T09:43:28;99322.78;;;19.51;26.45
33845;BME280;20145;43.118;25.694;2023-02-21T09:45:58;99320.28;;;19.67;26.14
33845;BME280;20145;43.118;25.694;2023-02-21T09:48:25;99319.69;;;19.79;26.51
33845;BME280;20145;43.118;25.694;2023-02-21T09:50:55;99320.97;;;19.70;25.07
33845;BME280;20145;43.118;25.694;2023-02-21T09:53:28;99316.06;;;19.81;25.97
33845;BME280;20145;43.118;25.694;2023-02-21T09:55:58;99308.59;;;19.74;26.10
33845;BME280;20145;43.118;25.694;2023-02-21T09:58:25;99307.09;;;19.86;26.38
33845;BME280;20145;43.118;25.694;2023-02-21T10:00:50;99295.91;;;19.66;26.00
33845;BME280;20145;43.118;25.694;2023-02-21T10:06:12;99291.09;;;19.57;26.12
33845;BME280;20145;43.118;25.694;2023-02-21T10:08:58;99292.50;;;19.81;26.46
33845;BME280;20145;43.118;25.694;2023-02-21T10:11:45;99304.28;;;19.73;26.63
33845;BME280;20145;43.118;25.694;2023-02-21T10:19:50;99291.06;;;19.92;25.79
33845;BME280;20145;43.118;25.694;2023-02-21T10:22:18;99297.44;;;20.03;26.89
33845;BME280;20145;43.118;25.694;2023-02-21T10:24:44;99274.03;;;20.00;26.42
33845;BME280;20145;43.118;25.694;2023-02-21T10:27:17;99279.88;;;20.05;26.59
33845;BME280;20145;43.118;25.694;2023-02-21T10:30:06;99269.16;;;20.10;26.96
33845;BME280;20145;43.118;25.694;2023-02-21T10:32:36;99270.19;;;20.23;26.60
33845;BME280;20145;43.118;25.694;2023-02-21T10:35:02;99267.44;;;20.09;27.04
33845;BME280;20145;43.118;25.694;2023-02-21T10:45:52;99247.88;;;19.83;26.10
33845;BME280;20145;43.118;25.694;2023-02-21T10:48:19;99240.25;;;19.96;26.99
33845;BME280;20145;43.118;25.694;2023-02-21T10:51:13;99229.34;;;20.03;27.03
33845;BME280;20145;43.118;25.694;2023-02-21T10:53:40;99211.69;;;20.23;26.57
33845;BME280;20145;43.118;25.694;2023-02-21T11:03:51;99221.16;;;20.41;25.15
33845;BME280;20145;43.118;25.694;2023-02-21T11:06:23;99216.88;;;20.40;25.83
33845;BME280;20145;43.118;25.694;2023-02-21T11:08:51;99194.28;;;20.22;25.64
33845;BME280;20145;43.118;25.694;2023-02-21T11:11:37;99191.16;;;20.31;26.05
33845;BME280;20145;43.118;25.694;2023-02-21T11:14:19;99187.09;;;20.41;25.20
33845;BME280;20145;43.118;25.694;2023-02-21T11:22:11;99177.19;;;20.46;25.02
33845;BME280;20145;43.118;25.694;2023-02-21T11:24:45;99158.38;;;20.40;25.11
33845;BME280;20145;43.118;25.694;2023-02-21T11:27:12;99181.53;;;20.32;25.94
33845;BME280;20145;43.118;25.694;2023-02-21T11:29:41;99126.81;;;20.25;25.14
33845;BME280;20145;43.118;25.694;2023-02-21T11:32:20;99174.06;;;20.71;24.17
33845;BME280;20145;43.118;25.694;2023-02-21T11:34:48;99167.31;;;20.67;23.99
33845;BME280;20145;43.118;25.694;2023-02-21T11:37:14;99161.97;;;20.69;24.21
33845;BME280;20145;43.118;25.694;2023-02-21T11:39:40;99158.13;;;20.75;24.64
33845;BME280;20145;43.118;25.694;2023-02-21T11:47:34;99159.69;;;20.63;25.23
33845;BME280;20145;43.118;25.694;2023-02-21T11:50:10;99143.78;;;20.66;24.63
33845;BME280;20145;43.118;25.694;2023-02-21T11:52:40;99141.31;;;20.79;25.52
33845;BME280;20145;43.118;25.694;2023-02-21T11:55:13;99141.22;;;20.94;25.29
33845;BME280;20145;43.118;25.694;2023-02-21T12:01:07;99140.41;;;21.08;24.94
33845;BME280;20145;43.118;25.694;2023-02-21T12:06:27;99128.88;;;20.97;24.50
33845;BME280;20145;43.118;25.694;2023-02-21T12:09:14;99116.03;;;20.92;24.73
33845;BME280;20145;43.118;25.694;2023-02-21T12:12:04;99115.13;;;21.22;25.41
33845;BME280;20145;43.118;25.694;2023-02-21T12:14:55;99109.44;;;21.29;25.39
33845;BME280;20145;43.118;25.694;2023-02-21T12:20:42;99106.28;;;20.80;24.53
33845;BME280;20145;43.118;25.694;2023-02-21T12:27:02;99104.81;;;21.04;25.60
33845;BME280;20145;43.118;25.694;2023-02-21T12:38:26;99092.16;;;21.11;25.37
33845;BME280;20145;43.118;25.694;2023-02-21T12:48:35;99097.34;;;21.12;24.20
33845;BME280;20145;43.118;25.694;2023-02-21T12:51:06;99093.19;;;21.08;24.21
33845;BME280;20145;43.118;25.694;2023-02-21T12:56:16;99095.25;;;21.03;25.61
33845;BME280;20145;43.118;25.694;2023-02-21T12:58:57;99093.19;;;21.08;25.50
33845;BME280;20145;43.118;25.694;2023-02-21T13:01:29;99085.50;;;21.05;25.49
33845;BME280;20145;43.118;25.694;2023-02-21T13:06:59;99092.72;;;21.02;26.13
33845;BME280;20145;43.118;25.694;2023-02-21T13:09:37;99106.66;;;20.74;25.47
33845;BME280;20145;43.118;25.694;2023-02-21T13:12:23;99080.53;;;20.56;25.36
33845;BME280;20145;43.118;25.694;2023-02-21T13:14:59;99089.47;;;20.54;26.22
33845;BME280;20145;43.118;25.694;2023-02-21T13:17:27;99096.78;;;20.47;25.50
33845;BME280;20145;43.118;25.694;2023-02-21T13:20:05;99084.69;;;20.60;26.44
33845;BME280;20145;43.118;25.694;2023-02-21T13:28:42;99079.84;;;20.68;26.27
33845;BME280;20145;43.118;25.694;2023-02-21T13:31:21;99068.91;;;20.76;24.83
33845;BME280;20145;43.118;25.694;2023-02-21T13:33:51;99072.56;;;20.74;25.56
33845;BME280;20145;43.118;25.694;2023-02-21T13:41:46;99077.44;;;20.80;25.33
33845;BME280;20145;43.118;25.694;2023-02-21T13:44:37;99066.28;;;20.76;24.56
33845;BME280;20145;43.118;25.694;2023-02-21T13:47:08;99090.06;;;20.73;25.27
33845;BME280;20145;43.118;25.694;2023-02-21T13:57:44;99066.72;;;20.68;24.31
33845;BME280;20145;43.118;25.694;2023-02-21T14:10:48;99078.88;;;20.55;25.09
33845;BME280;20145;43.118;25.694;2023-02-21T14:15:48;99072.44;;;20.45;26.22
33845;BME280;20145;43.118;25.694;2023-02-21T14:18:31;99093.84;;;20.53;25.25
33845;BME280;20145;43.118;25.694;2023-02-21T14:21:16;99081.41;;;20.41;26.26
33845;BME280;20145;43.118;25.694;2023-02-21T14:37:29;99064.31;;;20.03;26.42
33845;BME280;20145;43.118;25.694;2023-02-21T14:50:57;99056.75;;;19.67;26.59
33845;BME280;20145;43.118;25.694;2023-02-21T15:04:40;99034.25;;;19.31;27.05
33845;BME280;20145;43.118;25.694;2023-02-21T15:07:49;99051.88;;;19.28;27.58
33845;BME280;20145;43.118;25.694;2023-02-21T15:10:17;99051.97;;;19.26;27.54
33845;BME280;20145;43.118;25.694;2023-02-21T15:12:53;99047.91;;;19.21;27.73
33845;BME280;20145;43.118;25.694;2023-02-21T15:15:40;99062.00;;;19.18;28.25
33845;BME280;20145;43.118;25.694;2023-02-21T15:18:22;99062.91;;;19.17;28.06
33845;BME280;20145;43.118;25.694;2023-02-21T15:23:43;99058.09;;;19.09;28.35
33845;BME280;20145;43.118;25.694;2023-02-21T15:26:24;99074.81;;;19.07;28.40
33845;BME280;20145;43.118;25.694;2023-02-21T15:29:13;99062.78;;;19.03;28.28
33845;BME280;20145;43.118;25.694;2023-02-21T15:31:54;99072.91;;;18.93;28.07
33845;BME280;20145;43.118;25.694;2023-02-21T15:34:25;99069.41;;;18.92;28.04
33845;BME280;20145;43.118;25.694;2023-02-21T15:37:19;99083.75;;;18.85;28.10
33845;BME280;20145;43.118;25.694;2023-02-21T15:39:56;99077.75;;;18.83;27.81
33845;BME280;20145;43.118;25.694;2023-02-21T15:42:24;99074.44;;;18.80;28.85
33845;BME280;20145;43.118;25.694;2023-02-21T15:44:59;99083.66;;;18.87;28.46
33845;BME280;20145;43.118;25.694;2023-02-21T15:47:27;99084.81;;;18.81;28.00
33845;BME280;20145;43.118;25.694;2023-02-21T15:52:43;99086.34;;;18.68;28.28
33845;BME280;20145;43.118;25.694;2023-02-21T15:58:12;99081.25;;;18.65;28.30
33845;BME280;20145;43.118;25.694;2023-02-21T16:00:43;99074.19;;;18.67;27.94
33845;BME280;20145;43.118;25.694;2023-02-21T16:06:43;99086.47;;;18.47;28.66
33845;BME280;20145;43.118;25.694;2023-02-21T16:11:44;99086.38;;;18.32;28.69
33845;BME280;20145;43.118;25.694;2023-02-21T16:19:34;99094.88;;;18.18;30.01
33845;BME280;20145;43.118;25.694;2023-02-21T16:22:37;99089.97;;;18.12;29.98
33845;BME280;20145;43.118;25.694;2023-02-21T16:25:07;99089.50;;;18.03;30.67
33845;BME280;20145;43.118;25.694;2023-02-21T16:27:33;99093.66;;;18.08;30.25
33845;BME280;20145;43.118;25.694;2023-02-21T16:29:58;99103.31;;;18.05;30.17
33845;BME280;20145;43.118;25.694;2023-02-21T16:32:24;99103.69;;;17.98;30.75
33845;BME280;20145;43.118;25.694;2023-02-21T16:34:50;99110.63;;;17.99;30.28